sensor_id;sensor_type;location;lat;lon;timestamp;temperature;humidity
18268;DHT22;9260;49.998;19.880;2023-08-30T00:07:56;16.70;87.80
18268;DHT22;9260;49.998;19.880;2023-08-30T00:18:01;16.40;91.90
18268;DHT22;9260;49.998;19.880;2023-08-30T00:28:05;16.40;95.20
18268;DHT22;9260;49.998;19.880;2023-08-30T00:38:10;16.30;99.10
18268;DHT22;9260;49.998;19.880;2023-08-30T00:48:14;16.10;85.80
18268;DHT22;9260;49.998;19.880;2023-08-30T00:58:20;16.10;13.20
18268;DHT22;9260;49.998;19.880;2023-08-30T01:08:23;16.10;65.70
18268;DHT22;9260;49.998;19.880;2023-08-30T01:18:28;16.20;44.70
18268;DHT22;9260;49.998;19.880;2023-08-30T01:28:36;16.10;44.10
18268;DHT22;9260;49.998;19.880;2023-08-30T01:38:41;16.10;65.60
18268;DHT22;9260;49.998;19.880;2023-08-30T01:58:50;16.10;1.00
18268;DHT22;9260;49.998;19.880;2023-08-30T02:18:58;16.10;31.10
18268;DHT22;9260;49.998;19.880;2023-08-30T02:29:03;16.00;5.90
18268;DHT22;9260;49.998;19.880;2023-08-30T02:39:07;16.10;15.60
18268;DHT22;9260;49.998;19.880;2023-08-30T02:49:11;16.10;17.80
18268;DHT22;9260;49.998;19.880;2023-08-30T02:59:14;16.10;17.30
18268;DHT22;9260;49.998;19.880;2023-08-30T03:09:20;16.00;31.20
18268;DHT22;9260;49.998;19.880;2023-08-30T03:19:24;16.10;19.90
18268;DHT22;9260;49.998;19.880;2023-08-30T03:29:28;16.10;19.10
18268;DHT22;9260;49.998;19.880;2023-08-30T03:39:32;16.20;17.70
18268;DHT22;9260;49.998;19.880;2023-08-30T03:49:36;16.10;28.80
18268;DHT22;9260;49.998;19.880;2023-08-30T04:19:51;16.10;24.20
18268;DHT22;9260;49.998;19.880;2023-08-30T04:50:07;16.40;55.80
18268;DHT22;9260;49.998;19.880;2023-08-30T05:00:11;16.50;99.80
18268;DHT22;9260;49.998;19.880;2023-08-30T05:10:16;16.70;99.90
18268;DHT22;9260;49.998;19.880;2023-08-30T05:20:20;16.70;99.90
18268;DHT22;9260;49.998;19.880;2023-08-30T05:40:31;17.00;99.90
18268;DHT22;9260;49.998;19.880;2023-08-30T05:50:35;17.30;99.90
18268;DHT22;9260;49.998;19.880;2023-08-30T06:00:39;17.10;99.90
18268;DHT22;9260;49.998;19.880;2023-08-30T06:20:47;17.00;99.90
18268;DHT22;9260;49.998;19.880;2023-08-30T06:30:52;17.00;99.90
18268;DHT22;9260;49.998;19.880;2023-08-30T06:40:57;17.30;99.90
18268;DHT22;9260;49.998;19.880;2023-08-30T06:51:02;17.60;99.90
18268;DHT22;9260;49.998;19.880;2023-08-30T07:01:05;17.50;99.90
18268;DHT22;9260;49.998;19.880;2023-08-30T07:11:10;17.40;99.90
18268;DHT22;9260;49.998;19.880;2023-08-30T07:21:33;17.10;99.90
18268;DHT22;9260;49.998;19.880;2023-08-30T07:31:41;16.60;99.90
18268;DHT22;9260;49.998;19.880;2023-08-30T08:01:53;18.20;99.90
18268;DHT22;9260;49.998;19.880;2023-08-30T08:11:57;18.60;99.90
18268;DHT22;9260;49.998;19.880;2023-08-30T08:22:01;19.50;99.90
18268;DHT22;9260;49.998;19.880;2023-08-30T08:32:06;19.60;99.90
18268;DHT22;9260;49.998;19.880;2023-08-30T08:42:10;20.00;99.90
18268;DHT22;9260;49.998;19.880;2023-08-30T08:52:14;22.00;99.90
18268;DHT22;9260;49.998;19.880;2023-08-30T09:12:38;21.40;99.90
18268;DHT22;9260;49.998;19.880;2023-08-30T09:22:41;23.00;99.90
18268;DHT22;9260;49.998;19.880;2023-08-30T09:32:47;23.60;99.90
18268;DHT22;9260;49.998;19.880;2023-08-30T09:42:50;21.90;99.90
18268;DHT22;9260;49.998;19.880;2023-08-30T09:53:14;21.20;99.90
18268;DHT22;9260;49.998;19.880;2023-08-30T10:13:34;20.10;99.90
18268;DHT22;9260;49.998;19.880;2023-08-30T10:23:38;20.70;99.90
18268;DHT22;9260;49.998;19.880;2023-08-30T10:33:50;21.20;99.90
18268;DHT22;9260;49.998;19.880;2023-08-30T10:43:55;21.40;99.90
18268;DHT22;9260;49.998;19.880;2023-08-30T10:54:11;21.20;99.90
18268;DHT22;9260;49.998;19.880;2023-08-30T11:04:15;21.90;99.90
18268;DHT22;9260;49.998;19.880;2023-08-30T11:14:21;21.90;99.90
18268;DHT22;9260;49.998;19.880;2023-08-30T11:24:24;21.40;99.90
18268;DHT22;9260;49.998;19.880;2023-08-30T11:34:29;19.90;99.90
18268;DHT22;9260;49.998;19.880;2023-08-30T11:54:37;19.10;99.90
18268;DHT22;9260;49.998;19.880;2023-08-30T12:04:41;19.00;99.90
18268;DHT22;9260;49.998;19.880;2023-08-30T12:14:54;18.20;99.90
18268;DHT22;9260;49.998;19.880;2023-08-30T12:24:58;17.90;99.90
18268;DHT22;9260;49.998;19.880;2023-08-30T12:35:05;17.70;99.90
18268;DHT22;9260;49.998;19.880;2023-08-30T12:45:08;17.70;99.90
18268;DHT22;9260;49.998;19.880;2023-08-30T12:55:13;18.00;99.90
18268;DHT22;9260;49.998;19.880;2023-08-30T13:05:17;19.00;99.90
18268;DHT22;9260;49.998;19.880;2023-08-30T13:15:22;21.00;99.90
18268;DHT22;9260;49.998;19.880;2023-08-30T13:25:25;21.90;99.90
18268;DHT22;9260;49.998;19.880;2023-08-30T13:35:30;21.20;99.90
18268;DHT22;9260;49.998;19.880;2023-08-30T13:45:33;19.70;99.90
18268;DHT22;9260;49.998;19.880;2023-08-30T13:55:38;19.00;99.90
18268;DHT22;9260;49.998;19.880;2023-08-30T14:05:41;19.10;99.90
18268;DHT22;9260;49.998;19.880;2023-08-30T14:15:46;20.00;99.90
18268;DHT22;9260;49.998;19.880;2023-08-30T14:25:54;19.60;99.90
18268;DHT22;9260;49.998;19.880;2023-08-30T14:36:00;19.60;99.90
18268;DHT22;9260;49.998;19.880;2023-08-30T14:46:04;20.00;99.90
18268;DHT22;9260;49.998;19.880;2023-08-30T14:56:14;19.00;99.90
18268;DHT22;9260;49.998;19.880;2023-08-30T15:06:19;19.10;99.90
18268;DHT22;9260;49.998;19.880;2023-08-30T15:16:24;19.20;99.90
18268;DHT22;9260;49.998;19.880;2023-08-30T15:36:32;17.30;99.90
18268;DHT22;9260;49.998;19.880;2023-08-30T15:46:35;17.10;99.90
18268;DHT22;9260;49.998;19.880;2023-08-30T15:56:40;16.80;99.90
18268;DHT22;9260;49.998;19.880;2023-08-30T16:06:45;16.30;99.90
18268;DHT22;9260;49.998;19.880;2023-08-30T16:16:49;16.10;99.90
18268;DHT22;9260;49.998;19.880;2023-08-30T16:26:53;15.80;99.90
18268;DHT22;9260;49.998;19.880;2023-08-30T16:36:59;16.00;99.90
18268;DHT22;9260;49.998;19.880;2023-08-30T16:47:02;15.60;99.90
18268;DHT22;9260;49.998;19.880;2023-08-30T16:57:07;15.40;99.90
18268;DHT22;9260;49.998;19.880;2023-08-30T17:07:10;15.20;99.90
18268;DHT22;9260;49.998;19.880;2023-08-30T17:17:15;15.20;99.90
18268;DHT22;9260;49.998;19.880;2023-08-30T17:27:18;14.80;99.90
18268;DHT22;9260;49.998;19.880;2023-08-30T17:37:23;15.10;99.90
18268;DHT22;9260;49.998;19.880;2023-08-30T17:47:26;14.90;99.90
18268;DHT22;9260;49.998;19.880;2023-08-30T17:57:32;14.80;99.90
18268;DHT22;9260;49.998;19.880;2023-08-30T18:07:37;14.50;99.90
18268;DHT22;9260;49.998;19.880;2023-08-30T18:17:43;14.40;99.90
18268;DHT22;9260;49.998;19.880;2023-08-30T18:27:46;14.10;99.90
18268;DHT22;9260;49.998;19.880;2023-08-30T18:37:52;14.50;99.90
18268;DHT22;9260;49.998;19.880;2023-08-30T18:47:55;14.10;99.90
18268;DHT22;9260;49.998;19.880;2023-08-30T18:58:00;14.10;99.90
18268;DHT22;9260;49.998;19.880;2023-08-30T19:08:05;14.20;88.00
18268;DHT22;9260;49.998;19.880;2023-08-30T19:28:13;14.10;92.20
18268;DHT22;9260;49.998;19.880;2023-08-30T19:38:18;14.00;99.90
18268;DHT22;9260;49.998;19.880;2023-08-30T19:48:22;14.00;99.90
18268;DHT22;9260;49.998;19.880;2023-08-30T19:58:27;14.10;99.90
18268;DHT22;9260;49.998;19.880;2023-08-30T20:08:30;14.10;99.90
18268;DHT22;9260;49.998;19.880;2023-08-30T20:18:35;14.20;99.90
18268;DHT22;9260;49.998;19.880;2023-08-30T20:28:39;14.00;99.90
18268;DHT22;9260;49.998;19.880;2023-08-30T20:38:45;14.00;99.90
18268;DHT22;9260;49.998;19.880;2023-08-30T20:48:48;14.00;99.90
18268;DHT22;9260;49.998;19.880;2023-08-30T21:19:04;14.10;99.90
18268;DHT22;9260;49.998;19.880;2023-08-30T21:39:14;14.00;99.90
18268;DHT22;9260;49.998;19.880;2023-08-30T21:49:18;13.90;99.90
18268;DHT22;9260;49.998;19.880;2023-08-30T22:19:31;13.90;99.90
18268;DHT22;9260;49.998;19.880;2023-08-30T22:29:34;13.90;99.90
18268;DHT22;9260;49.998;19.880;2023-08-30T22:39:39;13.80;99.90
18268;DHT22;9260;49.998;19.880;2023-08-30T22:59:47;13.70;99.90
18268;DHT22;9260;49.998;19.880;2023-08-30T23:09:51;13.80;99.90
18268;DHT22;9260;49.998;19.880;2023-08-30T23:19:57;13.80;99.90
18268;DHT22;9260;49.998;19.880;2023-08-30T23:30:01;13.60;99.90
18268;DHT22;9260;49.998;19.880;2023-08-30T23:40:08;13.60;99.90
18268;DHT22;9260;49.998;19.880;2023-08-30T23:50:12;13.60;99.90
